Terminal Aerodrome Forecast
Issued by NWS

Home | Current Version | Previous Version | Text Only | Print | Product List | Glossary On
Versions: 1 2 3 4 5 6 7 8 9 10 11 12 13 14 15 16
156
FTUS46 KSEW 071125
TAFCLM
TAF
KCLM 071125Z 0712/0812 00000KT P6SM BKN060
     FM072000 11007KT P6SM SCT060
     FM080900 11012G20KT P6SM SKC=

USA.gov is the U.S. government's official web portal to all federal, state and local government web resources and services.